Time;durP1;ratioP1;P1;durP2;ratioP2;P2;SDS_P1;SDS_P2;PMS_P1;PMS_P2;Temp;Humidity;BMP_temperature;BMP_pressure;BME280_temperature;BME280_humidity;BME280_pressure;Samples;Min_cycle;Max_cycle;Signal;HPM_P1;HPM_P2
2023/08/02 00:01:44;;;;;;;6.55;2.50;;;;;;;;;;4967239;28;20046;-88
2023/08/02 00:04:10;;;;;;;6.45;2.55;;;;;;;;;;4931072;28;20057;-89
2023/08/02 00:06:36;;;;;;;4.63;2.58;;;;;;;;;;4941167;28;20055;-89
2023/08/02 00:09:02;;;;;;;6.75;2.67;;;;;;;;;;4963600;28;20057;-89
2023/08/02 00:11:29;;;;;;;7.07;2.70;;;;;;;;;;4956237;28;20062;-89
2023/08/02 00:13:55;;;;;;;9.40;2.60;;;;;;;;;;4948996;28;20043;-89
2023/08/02 00:16:21;;;;;;;6.28;3.13;;;;;;;;;;4934321;28;20046;-89
2023/08/02 00:18:47;;;;;;;9.63;3.03;;;;;;;;;;4948721;28;20526;-88
2023/08/02 00:21:13;;;;;;;10.25;3.10;;;;;;;;;;4932351;28;20101;-88
2023/08/02 00:23:42;;;;;;;9.57;3.22;;;;;;;;;;4953109;28;20237;-89
2023/08/02 00:26:08;;;;;;;11.30;3.17;;;;;;;;;;4948022;28;20526;-89
2023/08/02 00:28:34;;;;;;;8.20;2.90;;;;;;;;;;4956056;28;20050;-89
2023/08/02 00:31:00;;;;;;;11.00;3.65;;;;;;;;;;4949936;28;20042;-88
2023/08/02 00:33:26;;;;;;;8.13;3.35;;;;;;;;;;4939248;28;20054;-91
2023/08/02 00:35:54;;;;;;;8.27;3.17;;;;;;;;;;4934278;28;20399;-90
2023/08/02 00:38:21;;;;;;;10.10;3.53;;;;;;;;;;4933254;28;20531;-89
2023/08/02 00:40:48;;;;;;;12.00;3.90;;;;;;;;;;4949624;28;20407;-89
2023/08/02 00:43:14;;;;;;;7.70;4.25;;;;;;;;;;4951315;28;20063;-89
2023/08/02 00:45:41;;;;;;;10.10;4.32;;;;;;;;;;4937007;28;20038;-89
2023/08/02 00:48:10;;;;;;;11.13;4.57;;;;;;;;;;4960381;28;20042;-89
2023/08/02 00:50:36;;;;;;;9.80;4.32;;;;;;;;;;4947867;28;20133;-89
2023/08/02 00:53:03;;;;;;;10.93;4.43;;;;;;;;;;4969602;28;20062;-89
2023/08/02 00:55:29;;;;;;;13.27;4.85;;;;;;;;;;4973085;28;20074;-89
2023/08/02 00:57:56;;;;;;;11.00;4.97;;;;;;;;;;4966972;28;20100;-90
2023/08/02 01:00:22;;;;;;;9.70;4.97;;;;;;;;;;4951091;28;20054;-90
2023/08/02 01:02:48;;;;;;;13.50;5.97;;;;;;;;;;4951502;28;20391;-89
2023/08/02 01:05:15;;;;;;;13.95;5.05;;;;;;;;;;4935396;28;20042;-90
2023/08/02 01:07:48;;;;;;;11.20;4.50;;;;;;;;;;4954046;28;20049;-90
2023/08/02 01:10:30;;;;;;;12.57;5.65;;;;;;;;;;4955814;28;20050;-89
2023/08/02 01:13:00;;;;;;;13.32;4.97;;;;;;;;;;4954182;28;20054;-89
2023/08/02 01:15:27;;;;;;;11.30;5.00;;;;;;;;;;4950866;28;20050;-89
2023/08/02 01:17:54;;;;;;;17.90;5.82;;;;;;;;;;4952867;28;20518;-87
2023/08/02 01:20:20;;;;;;;11.15;4.95;;;;;;;;;;4973387;28;20048;-89
2023/08/02 01:22:47;;;;;;;11.95;5.72;;;;;;;;;;4975121;28;20492;-89
2023/08/02 01:25:13;;;;;;;9.90;4.90;;;;;;;;;;4966085;28;20475;-88
2023/08/02 01:27:48;;;;;;;9.90;4.70;;;;;;;;;;4986312;28;20050;-89
2023/08/02 01:30:19;;;;;;;9.43;4.60;;;;;;;;;;4968854;28;20038;-88
2023/08/02 01:32:45;;;;;;;10.23;4.82;;;;;;;;;;4969435;28;20631;-89
2023/08/02 01:35:11;;;;;;;14.07;4.95;;;;;;;;;;4946469;28;20565;-89
2023/08/02 01:37:37;;;;;;;15.80;4.93;;;;;;;;;;4986301;28;20573;-88
2023/08/02 01:40:04;;;;;;;12.13;4.63;;;;;;;;;;4988571;28;20053;-89
2023/08/02 01:42:30;;;;;;;13.85;5.35;;;;;;;;;;4960339;28;20051;-89
2023/08/02 01:44:56;;;;;;;8.27;4.82;;;;;;;;;;4968300;28;20307;-89
2023/08/02 01:47:22;;;;;;;15.93;5.20;;;;;;;;;;4965645;28;20082;-89
2023/08/02 01:49:51;;;;;;;11.65;4.93;;;;;;;;;;4953366;28;20050;-89
2023/08/02 01:52:20;;;;;;;10.70;4.70;;;;;;;;;;4971494;28;20065;-90
2023/08/02 01:54:46;;;;;;;11.10;5.30;;;;;;;;;;4977647;28;20053;-90
2023/08/02 01:57:12;;;;;;;12.45;4.97;;;;;;;;;;4970084;28;20105;-88
2023/08/02 01:59:38;;;;;;;11.25;4.60;;;;;;;;;;4970063;28;20042;-90
2023/08/02 02:02:04;;;;;;;12.70;4.68;;;;;;;;;;4953694;28;20462;-89
2023/08/02 02:04:30;;;;;;;10.77;4.78;;;;;;;;;;4953914;28;20043;-89
2023/08/02 02:06:59;;;;;;;15.88;5.22;;;;;;;;;;4968899;28;20132;-89
2023/08/02 02:09:26;;;;;;;10.77;5.15;;;;;;;;;;4981890;28;20109;-89
2023/08/02 02:11:52;;;;;;;13.00;4.93;;;;;;;;;;4979297;28;20065;-89
2023/08/02 02:14:18;;;;;;;10.05;5.28;;;;;;;;;;4969784;28;20446;-88
2023/08/02 02:16:44;;;;;;;17.88;5.10;;;;;;;;;;4980225;28;20092;-87
2023/08/02 02:19:10;;;;;;;12.80;5.65;;;;;;;;;;4968838;28;20061;-89
2023/08/02 02:21:36;;;;;;;14.43;5.40;;;;;;;;;;4969918;28;20050;-88
2023/08/02 02:24:02;;;;;;;13.20;5.35;;;;;;;;;;4952897;28;20061;-89
2023/08/02 02:26:28;;;;;;;19.38;6.47;;;;;;;;;;4982776;28;20051;-89
2023/08/02 02:28:54;;;;;;;16.95;5.88;;;;;;;;;;4949714;28;20084;-91
2023/08/02 02:31:23;;;;;;;18.90;6.28;;;;;;;;;;4952644;28;20129;-89
2023/08/02 02:33:49;;;;;;;14.77;5.78;;;;;;;;;;4968479;28;20807;-88
2023/08/02 02:36:15;;;;;;;8.65;4.75;;;;;;;;;;4984319;28;20521;-89
2023/08/02 02:38:42;;;;;;;20.27;5.85;;;;;;;;;;4983716;28;20407;-89
2023/08/02 02:41:08;;;;;;;16.30;5.35;;;;;;;;;;4952730;28;20926;-89
2023/08/02 02:43:34;;;;;;;19.42;5.72;;;;;;;;;;4968977;28;20048;-90
2023/08/02 02:46:00;;;;;;;13.80;6.07;;;;;;;;;;4965818;28;20097;-89
2023/08/02 02:48:26;;;;;;;16.75;5.63;;;;;;;;;;4949528;28;20049;-88
2023/08/02 02:50:52;;;;;;;18.40;6.28;;;;;;;;;;4968026;28;20407;-90
2023/08/02 02:53:23;;;;;;;15.30;6.10;;;;;;;;;;4986787;28;20394;-89
2023/08/02 02:55:51;;;;;;;12.90;5.85;;;;;;;;;;4986839;28;20054;-89
2023/08/02 02:58:17;;;;;;;17.95;6.13;;;;;;;;;;4954240;28;20054;-91
2023/08/02 03:00:43;;;;;;;18.77;5.80;;;;;;;;;;4965797;28;20137;-89
2023/08/02 03:03:09;;;;;;;15.52;5.95;;;;;;;;;;4950564;28;20149;-89
2023/08/02 03:05:37;;;;;;;21.83;6.85;;;;;;;;;;4968430;28;20050;-90
2023/08/02 03:08:04;;;;;;;16.42;6.35;;;;;;;;;;4951437;28;20435;-89
2023/08/02 03:10:29;;;;;;;15.77;6.65;;;;;;;;;;4968270;28;20058;-89
2023/08/02 03:12:56;;;;;;;23.23;6.55;;;;;;;;;;4952848;28;20046;-89
2023/08/02 03:15:25;;;;;;;22.58;7.15;;;;;;;;;;4967832;28;20049;-89
2023/08/02 03:17:53;;;;;;;23.55;7.13;;;;;;;;;;4967017;28;20060;-89
2023/08/02 03:20:19;;;;;;;19.13;7.68;;;;;;;;;;4981517;28;20133;-88
2023/08/02 03:22:45;;;;;;;22.80;7.68;;;;;;;;;;4948853;28;20050;-88
2023/08/02 03:25:11;;;;;;;21.83;7.57;;;;;;;;;;4990483;28;20046;-89
2023/08/02 03:27:39;;;;;;;21.70;8.00;;;;;;;;;;4984577;28;20053;-88
2023/08/02 03:30:05;;;;;;;23.95;8.02;;;;;;;;;;4969058;28;20053;-90
2023/08/02 03:32:31;;;;;;;22.52;7.50;;;;;;;;;;4983070;28;20507;-89
2023/08/02 03:34:57;;;;;;;26.83;7.93;;;;;;;;;;4952719;28;20487;-88
2023/08/02 03:37:24;;;;;;;25.75;7.57;;;;;;;;;;4967389;28;20056;-88
2023/08/02 03:39:50;;;;;;;20.42;7.88;;;;;;;;;;4983890;28;20124;-90
2023/08/02 03:42:16;;;;;;;20.73;7.97;;;;;;;;;;4968244;28;20565;-88
2023/08/02 03:44:42;;;;;;;27.02;7.70;;;;;;;;;;4968323;28;20166;-88
2023/08/02 03:47:08;;;;;;;21.88;7.85;;;;;;;;;;4984098;28;20506;-89
2023/08/02 03:49:34;;;;;;;28.75;7.97;;;;;;;;;;4981405;28;20053;-89
2023/08/02 03:52:00;;;;;;;23.05;7.35;;;;;;;;;;4968146;28;20046;-89
2023/08/02 03:54:26;;;;;;;23.38;7.38;;;;;;;;;;4966419;28;20038;-89
2023/08/02 03:56:52;;;;;;;21.50;7.90;;;;;;;;;;4966578;28;20054;-89
2023/08/02 03:59:18;;;;;;;19.90;7.47;;;;;;;;;;4966840;28;20038;-88
2023/08/02 04:01:44;;;;;;;23.00;7.88;;;;;;;;;;4982258;28;20053;-90
2023/08/02 04:04:10;;;;;;;25.02;7.90;;;;;;;;;;4962922;28;20072;-88
2023/08/02 04:06:36;;;;;;;19.42;7.50;;;;;;;;;;4966716;28;20100;-88
2023/08/02 04:09:05;;;;;;;26.65;7.90;;;;;;;;;;4951992;28;20042;-88
2023/08/02 04:11:31;;;;;;;25.67;8.32;;;;;;;;;;4965934;28;20104;-88
2023/08/02 04:13:57;;;;;;;22.60;7.80;;;;;;;;;;4983856;28;20071;-89
2023/08/02 04:16:26;;;;;;;23.83;7.88;;;;;;;;;;4950433;28;20487;-90
2023/08/02 04:18:52;;;;;;;;;;;;;;;;;;4984071;28;20461;-89
2023/08/02 04:21:19;;;;;;;20.77;8.10;;;;;;;;;;4947567;28;20008;-89
2023/08/02 04:23:45;;;;;;;23.55;8.40;;;;;;;;;;4951226;28;20046;-88
2023/08/02 04:26:11;;;;;;;19.38;7.50;;;;;;;;;;4968370;28;20141;-89
2023/08/02 04:28:37;;;;;;;18.05;7.88;;;;;;;;;;4974296;28;20489;-88
2023/08/02 04:31:03;;;;;;;20.15;8.15;;;;;;;;;;4950880;28;20062;-89
2023/08/02 04:33:29;;;;;;;22.10;9.00;;;;;;;;;;4948425;28;20046;-87
2023/08/02 04:35:59;;;;;;;21.30;9.73;;;;;;;;;;4964203;28;20668;-88
2023/08/02 04:38:28;;;;;;;18.40;8.23;;;;;;;;;;4949511;28;20525;-88
2023/08/02 04:40:56;;;;;;;16.67;7.68;;;;;;;;;;4964428;28;20038;-88
2023/08/02 04:43:22;;;;;;;17.80;8.18;;;;;;;;;;4949513;28;20096;-89
2023/08/02 04:45:48;;;;;;;19.45;8.55;;;;;;;;;;4981840;28;20129;-89
2023/08/02 04:48:17;;;;;;;18.55;8.90;;;;;;;;;;4965888;28;20049;-89
2023/08/02 04:50:43;;;;;;;17.63;8.48;;;;;;;;;;4964890;28;20129;-89
2023/08/02 04:53:09;;;;;;;20.20;8.57;;;;;;;;;;4966168;28;20317;-88
2023/08/02 04:55:42;;;;;;;22.42;8.63;;;;;;;;;;4969280;28;20054;-88
2023/08/02 04:58:08;;;;;;;21.23;8.60;;;;;;;;;;4954728;28;20046;-89
2023/08/02 05:00:34;;;;;;;20.38;8.75;;;;;;;;;;4971953;28;20419;-89
2023/08/02 05:03:00;;;;;;;17.95;8.30;;;;;;;;;;4953839;28;20446;-89
2023/08/02 05:05:26;;;;;;;21.15;8.60;;;;;;;;;;4953403;28;20050;-88
2023/08/02 05:07:52;;;;;;;17.00;8.40;;;;;;;;;;4954604;28;20073;-88
2023/08/02 05:10:18;;;;;;;23.42;8.82;;;;;;;;;;4972036;28;20485;-89
2023/08/02 05:12:44;;;;;;;23.23;8.98;;;;;;;;;;4952696;28;20502;-88
2023/08/02 05:15:11;;;;;;;18.52;8.43;;;;;;;;;;4952718;28;20049;-90
2023/08/02 05:17:40;;;;;;;19.38;8.18;;;;;;;;;;4953367;28;20058;-89
2023/08/02 05:20:06;;;;;;;22.33;9.43;;;;;;;;;;4970078;28;20046;-89
2023/08/02 05:22:32;;;;;;;21.23;9.30;;;;;;;;;;4971133;28;20089;-90
2023/08/02 05:24:58;;;;;;;21.13;8.15;;;;;;;;;;4970721;28;20479;-89
2023/08/02 05:27:24;;;;;;;19.73;8.52;;;;;;;;;;4989489;28;20132;-89
2023/08/02 05:29:53;;;;;;;21.90;9.60;;;;;;;;;;4971922;28;20052;-89
2023/08/02 05:32:19;;;;;;;14.15;7.78;;;;;;;;;;4954648;28;20061;-89
2023/08/02 05:34:45;;;;;;;19.45;8.95;;;;;;;;;;4986075;28;20613;-91
2023/08/02 05:37:12;;;;;;;20.75;8.60;;;;;;;;;;4954782;28;20046;-90
2023/08/02 05:39:38;;;;;;;19.85;8.40;;;;;;;;;;4973456;28;20042;-89
2023/08/02 05:42:04;;;;;;;19.40;8.60;;;;;;;;;;4987718;28;20573;-89
2023/08/02 05:44:30;;;;;;;14.38;7.85;;;;;;;;;;4968351;28;20086;-88
2023/08/02 05:46:57;;;;;;;23.25;9.15;;;;;;;;;;4970589;28;20055;-92
2023/08/02 05:49:23;;;;;;;22.30;9.02;;;;;;;;;;4954709;28;20046;-88
2023/08/02 05:51:55;;;;;;;19.02;9.02;;;;;;;;;;4970020;28;20495;-88
2023/08/02 05:54:21;;;;;;;20.25;9.32;;;;;;;;;;4966663;28;20569;-88
2023/08/02 05:56:53;;;;;;;19.88;9.35;;;;;;;;;;4955943;28;20414;-87
2023/08/02 05:59:22;;;;;;;21.73;9.20;;;;;;;;;;4968396;28;20392;-88
2023/08/02 06:01:48;;;;;;;16.35;8.90;;;;;;;;;;4950519;28;20306;-88
2023/08/02 06:04:14;;;;;;;17.75;8.90;;;;;;;;;;4952735;28;20050;-88
2023/08/02 06:06:40;;;;;;;18.65;9.40;;;;;;;;;;4989104;28;20047;-87
2023/08/02 06:09:07;;;;;;;17.08;9.35;;;;;;;;;;4968925;28;20578;-88
2023/08/02 06:11:33;;;;;;;17.52;9.07;;;;;;;;;;4952705;28;20058;-88
2023/08/02 06:13:59;;;;;;;16.25;9.63;;;;;;;;;;4951686;28;20065;-87
2023/08/02 06:16:26;;;;;;;15.32;8.82;;;;;;;;;;4958087;28;20046;-87
2023/08/02 06:19:01;;;;;;;17.42;9.25;;;;;;;;;;4983163;28;20514;-87
2023/08/02 06:21:27;;;;;;;17.70;9.07;;;;;;;;;;4985887;28;20503;-87
2023/08/02 06:23:54;;;;;;;14.27;8.48;;;;;;;;;;4948037;28;20042;-87
2023/08/02 06:26:20;;;;;;;18.15;9.55;;;;;;;;;;4947896;28;20052;-87
2023/08/02 06:28:48;;;;;;;17.02;9.13;;;;;;;;;;4949276;28;20046;-88
2023/08/02 06:31:17;;;;;;;;;;;;;;;;;;4965859;28;20088;-87
2023/08/02 06:33:43;;;;;;;;;;;;;;;;;;4970149;28;19931;-87
2023/08/02 06:36:09;;;;;;;18.92;8.25;;;;;;;;;;4970697;28;19925;-88
2023/08/02 06:38:39;;;;;;;16.30;8.60;;;;;;;;;;4977849;28;20132;-87
2023/08/02 06:41:07;;;;;;;17.40;8.10;;;;;;;;;;4946762;28;20147;-88
2023/08/02 06:43:33;;;;;;;;;;;;;;;;;;4955283;28;20056;-88
2023/08/02 06:46:02;;;;;;;15.85;7.60;;;;;;;;;;4973451;28;19929;-87
2023/08/02 06:48:28;;;;;;;13.15;7.00;;;;;;;;;;4952055;28;20052;-87
2023/08/02 06:50:54;;;;;;;16.02;6.80;;;;;;;;;;4951399;28;20156;-87
2023/08/02 06:53:23;;;;;;;18.27;7.20;;;;;;;;;;4983825;28;20189;-88
2023/08/02 06:55:49;;;;;;;15.60;6.72;;;;;;;;;;4946811;28;20122;-90
2023/08/02 06:58:16;;;;;;;13.00;6.28;;;;;;;;;;4947231;28;20232;-89
2023/08/02 07:00:42;;;;;;;16.70;6.68;;;;;;;;;;4980746;28;20047;-89
2023/08/02 07:03:08;;;;;;;12.32;5.90;;;;;;;;;;4942273;28;20053;-91
2023/08/02 07:05:37;;;;;;;17.92;6.07;;;;;;;;;;4976572;28;20115;-91
2023/08/02 07:08:03;;;;;;;13.38;6.18;;;;;;;;;;4941184;28;20092;-90
2023/08/02 07:10:30;;;;;;;14.13;5.68;;;;;;;;;;4952853;28;20057;-88
2023/08/02 07:12:57;;;;;;;11.52;5.88;;;;;;;;;;4941405;28;20041;-89
2023/08/02 07:15:26;;;;;;;13.02;5.70;;;;;;;;;;4978029;28;20930;-90
2023/08/02 07:17:52;;;;;;;15.07;5.35;;;;;;;;;;4970363;28;20782;-88
2023/08/02 07:20:18;;;;;;;14.35;6.03;;;;;;;;;;4966861;28;20086;-90
2023/08/02 07:22:45;;;;;;;13.98;5.55;;;;;;;;;;4937880;28;20057;-90
2023/08/02 07:25:11;;;;;;;14.27;5.75;;;;;;;;;;4969832;28;20093;-88
2023/08/02 07:27:37;;;;;;;11.43;5.15;;;;;;;;;;4944370;28;20054;-88
2023/08/02 07:30:04;;;;;;;13.55;5.70;;;;;;;;;;4965766;28;20054;-86
2023/08/02 07:32:31;;;;;;;9.38;5.10;;;;;;;;;;4946532;28;20038;-87
2023/08/02 07:35:00;;;;;;;15.10;5.82;;;;;;;;;;4966363;28;20073;-89
2023/08/02 07:37:26;;;;;;;12.43;5.20;;;;;;;;;;4962939;28;20057;-88
2023/08/02 07:39:52;;;;;;;12.23;5.30;;;;;;;;;;4945233;28;20049;-88
2023/08/02 07:42:22;;;;;;;17.30;5.22;;;;;;;;;;4964169;28;20125;-89
2023/08/02 07:45:05;;;;;;;10.65;4.90;;;;;;;;;;4966659;28;20042;-88
2023/08/02 07:47:32;;;;;;;9.63;4.35;;;;;;;;;;4964417;28;20054;-90
2023/08/02 07:49:58;;;;;;;11.90;4.45;;;;;;;;;;4942184;28;20030;-88
2023/08/02 07:52:24;;;;;;;9.80;4.50;;;;;;;;;;4939644;28;20095;-88
2023/08/02 07:54:53;;;;;;;12.70;4.93;;;;;;;;;;4942224;28;20049;-89
2023/08/02 07:57:19;;;;;;;14.02;4.30;;;;;;;;;;4976709;28;20050;-89
2023/08/02 07:59:46;;;;;;;9.00;4.68;;;;;;;;;;4958626;28;20046;-89
2023/08/02 08:02:12;;;;;;;11.65;4.78;;;;;;;;;;4977573;28;20088;-86
2023/08/02 08:04:38;;;;;;;11.13;4.03;;;;;;;;;;4979187;28;20538;-87
2023/08/02 08:07:07;;;;;;;11.07;4.00;;;;;;;;;;4975472;28;20056;-88
2023/08/02 08:09:35;;;;;;;10.30;4.03;;;;;;;;;;4963196;28;20053;-88
2023/08/02 08:12:04;;;;;;;11.90;4.13;;;;;;;;;;4941437;28;20072;-87
2023/08/02 08:14:31;;;;;;;11.70;4.60;;;;;;;;;;4944185;28;20084;-88
2023/08/02 08:16:58;;;;;;;11.27;4.95;;;;;;;;;;4944232;28;20070;-86
2023/08/02 08:19:25;;;;;;;12.38;4.60;;;;;;;;;;4945099;28;20054;-87
2023/08/02 08:21:54;;;;;;;11.70;5.25;;;;;;;;;;4967867;28;20506;-88
2023/08/02 08:24:20;;;;;;;9.68;5.10;;;;;;;;;;4977500;28;20512;-86
2023/08/02 08:26:46;;;;;;;12.35;4.93;;;;;;;;;;4959282;28;21391;-86
2023/08/02 08:29:12;;;;;;;12.75;4.82;;;;;;;;;;4973931;28;20276;-85
2023/08/02 08:31:38;;;;;;;13.45;5.47;;;;;;;;;;4962988;28;20365;-86
2023/08/02 08:34:04;;;;;;;12.38;5.45;;;;;;;;;;4965996;28;20045;-85
2023/08/02 08:36:31;;;;;;;12.23;5.50;;;;;;;;;;4961843;28;20143;-85
2023/08/02 08:39:00;;;;;;;13.85;5.88;;;;;;;;;;4948587;28;20054;-87
2023/08/02 08:41:35;;;;;;;16.65;5.82;;;;;;;;;;4963159;28;20129;-86
2023/08/02 08:44:02;;;;;;;15.57;5.70;;;;;;;;;;4963770;28;20058;-86
2023/08/02 08:46:29;;;;;;;13.68;6.32;;;;;;;;;;4945415;28;20589;-88
2023/08/02 08:48:55;;;;;;;12.77;5.72;;;;;;;;;;4944550;28;20116;-88
2023/08/02 08:51:28;;;;;;;12.70;5.22;;;;;;;;;;4964267;28;20057;-88
2023/08/02 08:53:55;;;;;;;11.52;5.25;;;;;;;;;;4982598;28;20046;-87
2023/08/02 08:56:27;;;;;;;15.18;5.50;;;;;;;;;;4962385;28;20065;-86
2023/08/02 08:58:53;;;;;;;13.90;6.05;;;;;;;;;;4978971;28;20177;-87
2023/08/02 09:01:20;;;;;;;12.43;5.72;;;;;;;;;;4961086;28;20045;-86
2023/08/02 09:03:46;;;;;;;14.38;6.32;;;;;;;;;;4967359;28;20450;-86
2023/08/02 09:06:14;;;;;;;17.92;6.38;;;;;;;;;;4963852;28;20540;-88
2023/08/02 09:08:44;;;;;;;14.68;6.20;;;;;;;;;;4970820;28;20053;-87
2023/08/02 09:11:11;;;;;;;12.80;5.45;;;;;;;;;;4949885;28;20487;-87
2023/08/02 09:13:37;;;;;;;12.68;5.32;;;;;;;;;;4984752;28;20476;-87
2023/08/02 09:16:11;;;;;;;12.93;5.35;;;;;;;;;;4983793;28;20507;-86
2023/08/02 09:18:44;;;;;;;10.55;5.30;;;;;;;;;;4959535;28;20192;-87
2023/08/02 09:21:13;;;;;;;12.20;5.63;;;;;;;;;;4942557;28;20166;-87
2023/08/02 09:23:39;;;;;;;14.52;6.03;;;;;;;;;;4944224;28;20088;-86
2023/08/02 09:26:12;;;;;;;13.27;5.93;;;;;;;;;;4943750;28;20050;-86
2023/08/02 09:28:38;;;;;;;15.60;6.25;;;;;;;;;;4942972;28;20042;-86
2023/08/02 09:31:14;;;;;;;11.05;6.22;;;;;;;;;;4966704;28;20035;-87
2023/08/02 09:33:51;;;;;;;16.52;7.72;;;;;;;;;;4960676;28;20050;-86
2023/08/02 09:36:28;;;;;;;16.55;7.80;;;;;;;;;;4966391;28;20055;-87
2023/08/02 09:39:01;;;;;;;11.77;7.30;;;;;;;;;;4957150;28;20057;-88
2023/08/02 09:41:27;;;;;;;20.10;8.05;;;;;;;;;;4960847;28;20701;-87
2023/08/02 09:43:53;;;;;;;14.75;7.85;;;;;;;;;;4965146;28;20116;-86
2023/08/02 09:46:36;;;;;;;17.85;8.40;;;;;;;;;;4944480;28;20042;-86
2023/08/02 09:49:21;;;;;;;14.90;8.35;;;;;;;;;;4980693;28;20038;-86
2023/08/02 09:51:47;;;;;;;15.85;8.20;;;;;;;;;;4941666;28;20133;-87
2023/08/02 09:54:14;;;;;;;13.40;8.27;;;;;;;;;;4963727;28;20057;-86
2023/08/02 09:56:41;;;;;;;15.73;8.02;;;;;;;;;;4958454;28;20057;-86
2023/08/02 09:59:07;;;;;;;16.15;7.35;;;;;;;;;;4943315;28;20049;-86
2023/08/02 10:01:34;;;;;;;13.10;7.82;;;;;;;;;;4960543;28;20046;-86
2023/08/02 10:04:04;;;;;;;12.40;7.50;;;;;;;;;;4964697;28;20054;-87
2023/08/02 10:06:34;;;;;;;10.68;6.70;;;;;;;;;;4960853;28;20116;-87
2023/08/02 10:09:04;;;;;;;10.40;7.20;;;;;;;;;;4956093;28;20142;-87
2023/08/02 10:11:52;;;;;;;12.65;7.60;;;;;;;;;;4941778;28;20058;-87
2023/08/02 10:14:18;;;;;;;10.70;6.80;;;;;;;;;;4962245;28;20118;-88
2023/08/02 10:16:48;;;;;;;11.82;6.70;;;;;;;;;;4938665;28;20352;-88
2023/08/02 10:19:17;;;;;;;11.30;6.85;;;;;;;;;;4957544;28;20061;-87
2023/08/02 10:21:46;;;;;;;;;;;;;;;;;;4963306;28;20549;-87
2023/08/02 10:24:15;;;;;;;9.18;5.78;;;;;;;;;;4961283;28;20013;-89
2023/08/02 10:26:41;;;;;;;8.45;5.57;;;;;;;;;;4944046;28;20078;-88
2023/08/02 10:29:12;;;;;;;8.98;5.80;;;;;;;;;;4943434;28;20073;-90
2023/08/02 10:31:40;;;;;;;10.10;5.70;;;;;;;;;;4957137;28;20632;-85
2023/08/02 10:34:29;;;;;;;7.03;5.88;;;;;;;;;;4957678;28;20130;-86
2023/08/02 10:36:55;;;;;;;8.98;5.47;;;;;;;;;;4932763;28;20249;-87
2023/08/02 10:39:41;;;;;;;7.90;5.40;;;;;;;;;;4962149;28;20046;-87
2023/08/02 10:42:10;;;;;;;7.82;4.95;;;;;;;;;;4943506;28;20053;-86
2023/08/02 10:44:36;;;;;;;6.53;4.28;;;;;;;;;;4957809;28;20402;-87
2023/08/02 10:47:21;;;;;;;5.65;4.43;;;;;;;;;;4943332;28;20043;-87
2023/08/02 10:49:47;;;;;;;6.50;4.20;;;;;;;;;;4975754;28;20055;-87
2023/08/02 10:52:24;;;;;;;8.13;4.00;;;;;;;;;;4959139;28;20069;-86
2023/08/02 10:55:03;;;;;;;4.68;3.35;;;;;;;;;;4978152;28;20053;-86
2023/08/02 10:57:29;;;;;;;4.22;3.15;;;;;;;;;;4945177;28;20053;-85
2023/08/02 10:59:55;;;;;;;4.60;3.25;;;;;;;;;;4950723;28;20049;-86
2023/08/02 11:02:24;;;;;;;3.45;2.70;;;;;;;;;;4961665;28;20042;-87
2023/08/02 11:04:50;;;;;;;3.58;2.65;;;;;;;;;;4963260;28;20061;-87
2023/08/02 11:07:21;;;;;;;3.63;2.35;;;;;;;;;;4951095;28;20050;-87
2023/08/02 11:09:47;;;;;;;4.30;2.53;;;;;;;;;;4972665;28;20150;-86
2023/08/02 11:12:14;;;;;;;4.43;2.75;;;;;;;;;;4948052;28;20169;-87
2023/08/02 11:14:42;;;;;;;2.85;2.33;;;;;;;;;;4966355;28;20085;-86
2023/08/02 11:17:08;;;;;;;3.65;2.03;;;;;;;;;;4966876;28;20046;-88
2023/08/02 11:19:35;;;;;;;3.00;2.40;;;;;;;;;;4966332;28;20505;-86
2023/08/02 11:22:02;;;;;;;4.28;2.53;;;;;;;;;;4967347;28;20043;-86
2023/08/02 11:24:29;;;;;;;2.25;1.90;;;;;;;;;;4965319;28;20306;-88
2023/08/02 11:26:59;;;;;;;4.45;2.00;;;;;;;;;;4945588;28;20050;-87
2023/08/02 11:29:25;;;;;;;2.13;1.88;;;;;;;;;;4966983;28;20053;-87
2023/08/02 11:31:52;;;;;;;3.65;2.05;;;;;;;;;;4982370;28;20485;-86
2023/08/02 11:34:19;;;;;;;2.25;1.60;;;;;;;;;;4966149;28;20454;-86
2023/08/02 11:36:48;;;;;;;1.70;1.60;;;;;;;;;;4982702;28;20049;-86
2023/08/02 11:39:15;;;;;;;2.90;1.70;;;;;;;;;;4983756;28;20038;-86
2023/08/02 11:41:41;;;;;;;2.13;1.77;;;;;;;;;;4964149;28;20050;-86
2023/08/02 11:44:17;;;;;;;2.13;1.50;;;;;;;;;;4979467;28;20501;-86
2023/08/02 11:46:43;;;;;;;1.65;1.40;;;;;;;;;;4988075;28;20050;-88
2023/08/02 11:49:09;;;;;;;2.90;1.20;;;;;;;;;;4984097;28;20325;-87
2023/08/02 11:51:39;;;;;;;1.40;1.13;;;;;;;;;;4951477;28;20151;-87
2023/08/02 11:54:05;;;;;;;2.47;1.05;;;;;;;;;;4967062;28;20045;-85
2023/08/02 11:56:31;;;;;;;2.38;1.20;;;;;;;;;;4965051;28;20133;-87
2023/08/02 11:59:00;;;;;;;1.40;1.30;;;;;;;;;;4965096;28;20133;-86
2023/08/02 12:01:27;;;;;;;1.50;1.40;;;;;;;;;;4969241;28;20048;-87
2023/08/02 12:03:57;;;;;;;3.00;1.20;;;;;;;;;;4982898;28;20056;-86
2023/08/02 12:06:24;;;;;;;4.55;1.42;;;;;;;;;;4966517;28;20038;-87
2023/08/02 12:09:00;;;;;;;1.50;1.33;;;;;;;;;;4981428;28;20577;-87
2023/08/02 12:11:29;;;;;;;2.08;1.50;;;;;;;;;;4981732;28;20047;-86
2023/08/02 12:14:01;;;;;;;2.75;1.13;;;;;;;;;;4975429;28;20510;-86
2023/08/02 12:16:37;;;;;;;1.70;1.20;;;;;;;;;;4965954;28;20122;-87
2023/08/02 12:19:06;;;;;;;2.70;1.25;;;;;;;;;;4936713;28;20141;-86
2023/08/02 12:21:32;;;;;;;2.50;1.20;;;;;;;;;;4962876;28;20065;-87
2023/08/02 12:24:20;;;;;;;1.90;1.48;;;;;;;;;;4961632;28;20045;-87
2023/08/02 12:26:46;;;;;;;1.77;1.20;;;;;;;;;;4945984;28;20082;-87
2023/08/02 12:29:21;;;;;;;1.40;1.30;;;;;;;;;;4963803;28;20117;-87
2023/08/02 12:31:48;;;;;;;1.55;1.20;;;;;;;;;;4970008;28;20457;-86
2023/08/02 12:34:17;;;;;;;1.55;1.40;;;;;;;;;;4944764;28;20538;-87
2023/08/02 12:36:43;;;;;;;2.25;1.40;;;;;;;;;;4966715;28;20403;-86
2023/08/02 12:39:09;;;;;;;1.58;1.48;;;;;;;;;;4964022;28;20057;-86
2023/08/02 12:41:35;;;;;;;2.75;1.50;;;;;;;;;;4951537;28;20581;-87
2023/08/02 12:44:01;;;;;;;1.90;1.70;;;;;;;;;;4986072;28;20173;-88
2023/08/02 12:46:27;;;;;;;1.65;1.50;;;;;;;;;;4982931;28;20394;-88
2023/08/02 12:48:53;;;;;;;2.58;1.50;;;;;;;;;;4968005;28;20394;-87
2023/08/02 12:51:19;;;;;;;2.63;1.60;;;;;;;;;;4958508;28;20495;-87
2023/08/02 12:53:48;;;;;;;1.70;1.58;;;;;;;;;;4943138;28;20513;-89
2023/08/02 12:56:14;;;;;;;1.63;1.52;;;;;;;;;;4966841;28;20042;-88
2023/08/02 12:58:40;;;;;;;2.53;1.50;;;;;;;;;;4948135;28;20048;-87
2023/08/02 13:01:09;;;;;;;3.85;2.22;;;;;;;;;;4981853;28;20126;-88
2023/08/02 13:03:38;;;;;;;3.10;1.50;;;;;;;;;;4948582;28;20580;-88
2023/08/02 13:06:04;;;;;;;1.85;1.73;;;;;;;;;;4947107;28;20077;-88
2023/08/02 13:08:39;;;;;;;2.85;1.92;;;;;;;;;;4970117;28;20130;-88
2023/08/02 13:11:05;;;;;;;3.20;1.77;;;;;;;;;;4980835;28;20058;-88
2023/08/02 13:13:33;;;;;;;2.83;1.67;;;;;;;;;;4964698;28;20046;-87
2023/08/02 13:15:59;;;;;;;2.78;1.80;;;;;;;;;;4963324;28;20130;-88
2023/08/02 13:18:28;;;;;;;2.50;1.90;;;;;;;;;;4970487;28;20093;-89
2023/08/02 13:20:54;;;;;;;3.55;2.20;;;;;;;;;;4953838;28;20050;-88
2023/08/02 13:23:20;;;;;;;3.75;2.17;;;;;;;;;;4970846;28;20103;-88
2023/08/02 13:25:46;;;;;;;3.85;2.28;;;;;;;;;;4974752;28;20123;-87
2023/08/02 13:28:14;;;;;;;2.50;2.15;;;;;;;;;;4979180;28;20046;-88
2023/08/02 13:30:44;;;;;;;2.30;2.10;;;;;;;;;;4996505;28;20455;-87
2023/08/02 13:33:15;;;;;;;4.88;2.30;;;;;;;;;;4995016;28;20476;-87
2023/08/02 13:35:41;;;;;;;3.63;2.50;;;;;;;;;;4968545;28;20049;-88
2023/08/02 13:38:09;;;;;;;2.80;2.40;;;;;;;;;;4969036;28;20128;-87
2023/08/02 13:40:35;;;;;;;4.28;2.80;;;;;;;;;;4986971;28;20046;-87
2023/08/02 13:43:01;;;;;;;4.75;2.50;;;;;;;;;;4972770;28;20073;-86
2023/08/02 13:45:27;;;;;;;4.22;3.13;;;;;;;;;;4987475;28;20477;-86
2023/08/02 13:47:56;;;;;;;11.88;5.32;;;;;;;;;;4955583;28;20493;-86
2023/08/02 13:50:22;;;;;;;4.32;2.90;;;;;;;;;;4969423;28;20043;-86
2023/08/02 13:52:51;;;;;;;6.53;3.80;;;;;;;;;;4960017;28;20057;-88
2023/08/02 13:55:20;;;;;;;8.55;3.45;;;;;;;;;;4953659;28;20046;-86
2023/08/02 13:57:46;;;;;;;4.65;3.40;;;;;;;;;;4990645;28;20158;-87
2023/08/02 14:00:12;;;;;;;4.82;3.78;;;;;;;;;;4949232;28;20066;-87
2023/08/02 14:02:38;;;;;;;4.43;3.88;;;;;;;;;;4965885;28;20487;-88
2023/08/02 14:05:07;;;;;;;3.28;2.88;;;;;;;;;;4949688;28;20483;-87
2023/08/02 14:07:33;;;;;;;3.67;2.20;;;;;;;;;;4956319;28;20141;-87
2023/08/02 14:09:59;;;;;;;3.50;1.63;;;;;;;;;;4966642;28;20447;-88
2023/08/02 14:12:26;;;;;;;2.20;2.00;;;;;;;;;;4950875;28;20467;-88
2023/08/02 14:14:52;;;;;;;2.78;2.05;;;;;;;;;;4965289;28;20039;-88
2023/08/02 14:17:18;;;;;;;1.90;1.60;;;;;;;;;;4960743;28;20485;-89
2023/08/02 14:19:44;;;;;;;4.10;2.17;;;;;;;;;;4970237;28;20060;-88
2023/08/02 14:22:10;;;;;;;6.70;1.98;;;;;;;;;;4949147;28;20050;-87
2023/08/02 14:24:36;;;;;;;4.40;2.08;;;;;;;;;;4980730;28;20062;-88
2023/08/02 14:27:04;;;;;;;3.67;1.67;;;;;;;;;;4953387;28;20053;-88
2023/08/02 14:29:30;;;;;;;2.00;1.52;;;;;;;;;;4971581;28;20054;-87
2023/08/02 14:31:56;;;;;;;2.03;1.40;;;;;;;;;;4976520;28;20229;-88
2023/08/02 14:34:24;;;;;;;2.25;1.30;;;;;;;;;;4977758;28;20205;-87
2023/08/02 14:36:50;;;;;;;4.15;1.60;;;;;;;;;;4967671;28;20624;-88
2023/08/02 14:39:16;;;;;;;4.15;1.52;;;;;;;;;;4979918;28;20046;-90